createdAt,value
2019-05-12T00:00:00.985Z,80.70
2019-05-12T00:02:30.064Z,81.06
2019-05-12T00:05:00.225Z,81.14
2019-05-12T00:07:30.365Z,80.70
2019-05-12T00:10:01.197Z,80.45
2019-05-12T00:12:32.025Z,80.24
2019-05-12T00:15:05.127Z,80.53
2019-05-12T00:17:35.025Z,81.64
2019-05-12T00:20:04.448Z,81.59
2019-05-12T00:22:41.802Z,80.83
2019-05-12T00:25:10.853Z,80.60
2019-05-12T00:27:39.921Z,81.37
2019-05-12T00:30:11.159Z,81.90
2019-05-12T00:32:40.345Z,80.91
2019-05-12T00:35:18.139Z,82.43
2019-05-12T00:37:57.397Z,81.01
2019-05-12T00:40:29.497Z,81.64
2019-05-12T00:43:04.790Z,80.91
2019-05-12T00:45:38.737Z,81.05
2019-05-12T00:48:09.258Z,79.27
2019-05-12T00:50:49.868Z,81.31
2019-05-12T00:53:34.834Z,80.38
2019-05-12T00:55:57.885Z,80.49
2019-05-12T00:58:27.766Z,79.07
2019-05-12T01:00:59.929Z,77.62
2019-05-12T01:03:29.344Z,78.32
2019-05-12T01:05:58.418Z,78.25
2019-05-12T01:08:28.156Z,78.85
2019-05-12T01:10:58.284Z,78.03
2019-05-12T01:13:28.049Z,79.03
2019-05-12T01:16:08.127Z,78.76
2019-05-12T01:18:40.436Z,79.48
2019-05-12T01:21:12.771Z,80.16
2019-05-12T01:23:53.633Z,80.84
2019-05-12T01:26:17.898Z,80.07
2019-05-12T01:28:51.898Z,79.71
2019-05-12T01:31:22.734Z,79.72
2019-05-12T01:33:54.644Z,80.12
2019-05-12T01:36:24.090Z,81.54
2019-05-12T01:39:01.603Z,82.82
2019-05-12T01:41:29.264Z,83.04
2019-05-12T01:43:58.512Z,81.97
2019-05-12T01:46:28.825Z,81.93
2019-05-12T01:49:00.998Z,81.09
2019-05-12T01:51:33.594Z,80.33
2019-05-12T01:54:11.631Z,83.50
2019-05-12T01:56:33.571Z,81.84
2019-05-12T01:59:02.697Z,81.97
2019-05-12T02:01:31.760Z,81.92
2019-05-12T02:04:00.817Z,80.71
2019-05-12T02:06:29.922Z,82.39
2019-05-12T02:09:00.921Z,82.38
2019-05-12T02:11:32.965Z,81.27
2019-05-12T02:14:03.712Z,82.47
2019-05-12T02:16:34.694Z,83.57
2019-05-12T02:19:04.852Z,83.93
2019-05-12T02:21:38.065Z,83.80
2019-05-12T02:24:07.784Z,83.08
2019-05-12T02:26:40.301Z,83.05
2019-05-12T02:29:10.720Z,82.95
2019-05-12T02:31:40.127Z,81.28
2019-05-12T02:34:15.361Z,82.17
2019-05-12T02:36:44.797Z,80.21
2019-05-12T02:39:18.217Z,80.31
2019-05-12T02:41:47.199Z,80.16
2019-05-12T02:44:24.777Z,80.30
2019-05-12T02:46:56.348Z,79.41
2019-05-12T02:49:25.386Z,81.80
2019-05-12T02:51:58.534Z,81.50
2019-05-12T02:54:47.013Z,82.62
2019-05-12T02:57:04.246Z,83.48
2019-05-12T02:59:36.266Z,81.46
2019-05-12T03:02:05.530Z,82.22
2019-05-12T03:04:36.383Z,82.08
2019-05-12T03:07:06.596Z,81.75
2019-05-12T03:09:37.001Z,79.97
2019-05-12T03:12:06.364Z,80.58
2019-05-12T03:14:40.559Z,80.69
2019-05-12T03:17:06.327Z,80.62
2019-05-12T03:19:37.604Z,78.92
2019-05-12T03:22:06.679Z,80.29
2019-05-12T03:24:38.808Z,79.98
2019-05-12T03:27:08.885Z,81.18
2019-05-12T03:29:37.960Z,80.75
2019-05-12T03:32:08.648Z,81.77
2019-05-12T03:34:38.848Z,80.95
2019-05-12T03:37:08.950Z,80.84
2019-05-12T03:39:38.274Z,80.33
2019-05-12T03:42:07.453Z,79.79
2019-05-12T03:44:38.204Z,79.45
2019-05-12T03:47:14.431Z,77.20
2019-05-12T03:49:45.431Z,78.76
2019-05-12T03:52:15.693Z,79.72
2019-05-12T03:54:45.234Z,78.92
2019-05-12T03:57:15.113Z,80.62
2019-05-12T03:59:49.776Z,80.45
2019-05-12T04:02:18.844Z,81.78
2019-05-12T04:04:47.877Z,82.66
2019-05-12T04:07:17.887Z,83.27
2019-05-12T04:09:46.960Z,82.95
2019-05-12T04:12:16.045Z,82.46
2019-05-12T04:14:45.087Z,80.46
2019-05-12T04:17:14.969Z,79.64
2019-05-12T04:19:44.842Z,80.25
2019-05-12T04:22:15.327Z,81.00
2019-05-12T04:24:45.831Z,78.39
2019-05-12T04:27:18.470Z,77.81
2019-05-12T04:29:47.805Z,79.83
2019-05-12T04:32:19.048Z,80.09
2019-05-12T04:34:55.518Z,79.79
2019-05-12T04:37:25.053Z,80.49
2019-05-12T04:39:55.626Z,79.70
2019-05-12T04:42:35.040Z,79.80
2019-05-12T04:45:04.763Z,79.68
2019-05-12T04:47:35.278Z,79.35
2019-05-12T04:50:06.017Z,80.74
2019-05-12T04:52:35.567Z,80.34
2019-05-12T04:55:08.289Z,80.15
2019-05-12T04:57:37.672Z,80.91
2019-05-12T05:00:09.122Z,81.28
2019-05-12T05:02:38.273Z,81.88
2019-05-12T05:05:07.338Z,81.87
2019-05-12T05:07:38.662Z,81.70
2019-05-12T05:10:08.479Z,81.78
2019-05-12T05:12:37.530Z,82.04
2019-05-12T05:15:06.641Z,81.44
2019-05-12T05:17:35.700Z,82.07
2019-05-12T05:20:06.116Z,82.78
2019-05-12T05:22:38.343Z,82.07
2019-05-12T05:25:07.735Z,80.48
2019-05-12T05:27:39.930Z,80.02
2019-05-12T05:30:09.475Z,78.95
2019-05-12T05:32:40.381Z,78.38
2019-05-12T05:35:11.040Z,80.28
2019-05-12T05:37:43.635Z,77.92
2019-05-12T05:40:14.151Z,78.74
2019-05-12T05:42:44.098Z,78.78
2019-05-12T05:45:19.632Z,79.41
2019-05-12T05:47:44.512Z,79.16
2019-05-12T05:50:18.130Z,77.64
2019-05-12T05:52:44.515Z,77.64
2019-05-12T05:55:19.669Z,76.58
2019-05-12T05:57:47.373Z,76.85
2019-05-12T06:00:23.126Z,76.35
2019-05-12T06:02:51.635Z,76.45
2019-05-12T06:05:26.464Z,76.34
2019-05-12T06:07:53.530Z,77.02
2019-05-12T06:10:34.722Z,75.90
2019-05-12T06:12:54.264Z,76.89
2019-05-12T06:15:23.592Z,78.55
2019-05-12T06:17:55.824Z,77.87
2019-05-12T06:20:29.509Z,77.96
2019-05-12T06:22:59.688Z,75.68
2019-05-12T06:25:44.646Z,76.25
2019-05-12T06:28:08.077Z,75.59
2019-05-12T06:30:44.107Z,76.29
2019-05-12T06:33:10.523Z,74.66
2019-05-12T06:35:42.444Z,72.84
2019-05-12T06:38:17.630Z,74.03
2019-05-12T06:40:47.828Z,73.47
2019-05-12T06:43:18.892Z,74.30
2019-05-12T06:45:54.335Z,74.74
2019-05-12T06:48:28.386Z,74.46
2019-05-12T06:50:56.116Z,75.90
2019-05-12T06:53:30.909Z,74.85
2019-05-12T06:55:55.941Z,75.53
2019-05-12T06:58:32.088Z,74.86
2019-05-12T07:01:11.885Z,75.00
2019-05-12T07:03:37.675Z,74.02
2019-05-12T07:06:18.050Z,75.45
2019-05-12T07:08:44.344Z,73.21
2019-05-12T07:11:14.279Z,73.08
2019-05-12T07:13:43.727Z,72.23
2019-05-12T07:16:21.260Z,74.82
2019-05-12T07:18:47.953Z,73.95
2019-05-12T07:21:21.024Z,72.14
2019-05-12T07:23:49.423Z,71.64
2019-05-12T07:26:19.567Z,69.01
2019-05-12T07:28:48.908Z,71.94
2019-05-12T07:31:17.993Z,71.66
2019-05-12T07:33:54.222Z,72.56
2019-05-12T07:36:19.254Z,72.42
2019-05-12T07:38:55.228Z,70.66
2019-05-12T07:41:25.839Z,70.58
2019-05-12T07:44:00.810Z,70.60
2019-05-12T07:46:29.634Z,70.72
2019-05-12T07:49:00.207Z,68.74
2019-05-12T07:51:38.280Z,71.35
2019-05-12T07:54:04.098Z,71.74
2019-05-12T07:56:36.506Z,68.99
2019-05-12T07:59:05.660Z,69.19
2019-05-12T08:01:35.929Z,69.27
2019-05-12T08:04:05.919Z,67.97
2019-05-12T08:06:41.713Z,68.58
2019-05-12T08:09:10.547Z,66.65
2019-05-12T08:11:39.806Z,66.87
2019-05-12T08:14:13.727Z,67.27
2019-05-12T08:16:43.728Z,66.13
2019-05-12T08:19:23.714Z,67.60
2019-05-12T08:21:49.137Z,68.63
2019-05-12T08:24:19.987Z,68.98
2019-05-12T08:26:58.844Z,68.61
2019-05-12T08:29:22.051Z,68.34
2019-05-12T08:31:51.078Z,68.57
2019-05-12T08:34:20.342Z,68.15
2019-05-12T08:36:53.419Z,69.03
2019-05-12T08:39:22.868Z,68.55
2019-05-12T08:41:55.869Z,65.91
2019-05-12T08:44:34.068Z,65.34
2019-05-12T08:46:56.789Z,65.07
2019-05-12T08:49:35.838Z,64.88
2019-05-12T08:52:03.988Z,65.35
2019-05-12T08:54:39.707Z,65.58
2019-05-12T08:57:06.941Z,65.83
2019-05-12T08:59:36.084Z,65.33
2019-05-12T09:02:08.314Z,67.55
2019-05-12T09:04:37.524Z,66.84
2019-05-12T09:07:07.979Z,65.83
2019-05-12T09:09:40.236Z,62.48
2019-05-12T09:12:09.426Z,62.55
2019-05-12T09:14:41.364Z,63.53
2019-05-12T09:17:13.874Z,60.34
2019-05-12T09:19:46.560Z,62.30
2019-05-12T09:22:20.378Z,63.22
2019-05-12T09:24:53.236Z,63.90
2019-05-12T09:27:24.038Z,65.01
2019-05-12T09:29:59.201Z,64.21
2019-05-12T09:32:27.560Z,61.69
2019-05-12T09:35:00.141Z,62.31
2019-05-12T09:37:30.887Z,63.85
2019-05-12T09:40:00.064Z,61.91
2019-05-12T09:42:30.961Z,62.09
2019-05-12T09:45:05.314Z,61.82
2019-05-12T09:47:30.972Z,60.77
2019-05-12T09:50:04.361Z,61.49
2019-05-12T09:52:34.805Z,61.58
2019-05-12T09:55:04.851Z,61.81
2019-05-12T09:57:40.676Z,59.16
2019-05-12T10:00:06.887Z,61.44
2019-05-12T10:02:36.916Z,59.94
2019-05-12T10:05:09.527Z,62.02
2019-05-12T10:07:38.693Z,61.57
2019-05-12T10:10:10.970Z,62.50
2019-05-12T10:12:46.331Z,63.31
2019-05-12T10:15:13.512Z,61.53
2019-05-12T10:17:43.411Z,61.71
2019-05-12T10:20:13.661Z,61.71
2019-05-12T10:22:43.825Z,61.57
2019-05-12T10:25:14.363Z,60.14
2019-05-12T10:27:45.097Z,60.77
2019-05-12T10:30:17.435Z,62.25
2019-05-12T10:32:49.112Z,62.19
2019-05-12T10:35:24.040Z,60.91
2019-05-12T10:37:54.246Z,60.31
2019-05-12T10:40:28.414Z,61.46
2019-05-12T10:42:58.782Z,60.05
2019-05-12T10:45:29.664Z,60.75
2019-05-12T10:47:58.736Z,62.49
2019-05-12T10:50:27.765Z,61.70
2019-05-12T10:52:56.961Z,59.30
2019-05-12T10:55:27.500Z,58.85
2019-05-12T10:58:01.988Z,59.82
2019-05-12T11:00:36.026Z,60.66
2019-05-12T11:03:12.273Z,62.44
2019-05-12T11:05:36.064Z,61.20
2019-05-12T11:08:09.473Z,60.10
2019-05-12T11:10:42.005Z,59.49
2019-05-12T11:13:18.067Z,60.19
2019-05-12T11:15:49.593Z,58.86
2019-05-12T11:18:39.353Z,61.14
2019-05-12T11:21:08.512Z,59.57
2019-05-12T11:23:37.595Z,60.80
2019-05-12T11:26:08.122Z,61.18
2019-05-12T11:28:38.792Z,60.37
2019-05-12T11:31:07.850Z,60.16
2019-05-12T11:33:36.903Z,60.68
2019-05-12T11:36:07.818Z,61.85
2019-05-12T11:38:36.976Z,59.95
2019-05-12T11:41:09.894Z,60.88
2019-05-12T11:43:41.498Z,62.78
2019-05-12T11:46:10.551Z,63.34
2019-05-12T11:48:40.359Z,61.59
2019-05-12T11:51:14.282Z,59.79
2019-05-12T11:53:41.346Z,59.96
2019-05-12T11:56:13.941Z,59.45
2019-05-12T11:58:51.438Z,59.17
2019-05-12T12:01:24.146Z,56.03
2019-05-12T12:03:54.662Z,55.96
2019-05-12T12:06:25.067Z,56.38
2019-05-12T12:08:54.106Z,57.84
2019-05-12T12:11:28.295Z,59.04
2019-05-12T12:14:10.464Z,58.92
2019-05-12T12:16:49.779Z,58.01
2019-05-12T12:19:13.891Z,59.10
2019-05-12T12:21:49.994Z,58.03
2019-05-12T12:24:21.245Z,58.05
2019-05-12T12:26:47.906Z,57.37
2019-05-12T12:29:23.981Z,57.55
2019-05-12T12:31:58.169Z,57.02
2019-05-12T12:34:30.046Z,57.58
2019-05-12T12:36:58.133Z,56.98
2019-05-12T12:39:30.393Z,58.43
2019-05-12T12:42:00.693Z,59.84
2019-05-12T12:44:37.697Z,59.51
2019-05-12T12:47:06.831Z,59.03
2019-05-12T12:49:39.917Z,57.74
2019-05-12T12:52:06.956Z,55.63
2019-05-12T12:54:37.710Z,56.44
2019-05-12T12:57:10.247Z,54.64
2019-05-12T12:59:51.006Z,54.35
2019-05-12T13:02:14.660Z,53.35
2019-05-12T13:04:50.684Z,51.56
2019-05-12T13:07:20.362Z,53.08
2019-05-12T13:09:55.046Z,52.91
2019-05-12T13:12:21.273Z,52.08
2019-05-12T13:14:50.353Z,53.19
2019-05-12T13:17:19.405Z,55.11
2019-05-12T13:19:53.628Z,52.14
2019-05-12T13:22:19.982Z,53.40
2019-05-12T13:24:49.092Z,50.40
2019-05-12T13:27:19.089Z,50.70
2019-05-12T13:30:02.255Z,49.65
2019-05-12T13:32:38.036Z,48.53
2019-05-12T13:35:09.684Z,49.89
2019-05-12T13:37:38.159Z,48.38
2019-05-12T13:40:08.529Z,47.91
2019-05-12T13:42:39.999Z,48.05
2019-05-12T13:45:13.122Z,46.88
2019-05-12T13:47:43.937Z,48.61
2019-05-12T13:50:21.283Z,46.88
2019-05-12T13:52:54.174Z,47.10
2019-05-12T13:55:24.059Z,48.55
2019-05-12T13:57:58.393Z,47.96
2019-05-12T14:00:27.528Z,49.31
2019-05-12T14:03:04.699Z,47.79
2019-05-12T14:05:28.646Z,45.77
2019-05-12T14:07:57.711Z,45.22
2019-05-12T14:10:26.774Z,45.41
2019-05-12T14:12:55.838Z,44.45
2019-05-12T14:15:26.269Z,43.93
2019-05-12T14:17:58.234Z,45.42
2019-05-12T14:20:27.307Z,46.32
2019-05-12T14:22:58.898Z,45.17
2019-05-12T14:25:32.118Z,43.21
2019-05-12T14:27:59.279Z,43.85
2019-05-12T14:30:33.530Z,43.49
2019-05-12T14:33:08.162Z,43.33
2019-05-12T14:35:41.170Z,45.83
2019-05-12T14:38:11.456Z,44.84
2019-05-12T14:40:42.248Z,46.85
2019-05-12T14:43:16.829Z,46.06
2019-05-12T14:45:46.577Z,46.13
2019-05-12T14:48:15.624Z,45.40
2019-05-12T14:50:44.719Z,45.26
2019-05-12T14:53:14.430Z,44.75
2019-05-12T14:55:43.821Z,43.37
2019-05-12T14:58:18.163Z,44.08
2019-05-12T15:00:50.843Z,42.71
2019-05-12T15:03:19.274Z,42.10
2019-05-12T15:05:48.894Z,40.27
2019-05-12T15:08:35.546Z,41.29
2019-05-12T15:10:53.327Z,42.61
2019-05-12T15:13:31.219Z,43.59
2019-05-12T15:16:01.866Z,43.67
2019-05-12T15:18:32.974Z,44.79
2019-05-12T15:21:09.329Z,42.95
2019-05-12T15:23:38.430Z,42.09
2019-05-12T15:26:09.657Z,41.78
2019-05-12T15:28:40.415Z,41.32
2019-05-12T15:31:09.621Z,39.15
2019-05-12T15:33:38.747Z,38.35
2019-05-12T15:36:07.820Z,39.15
2019-05-12T15:38:43.738Z,38.90
2019-05-12T15:41:19.982Z,38.90
2019-05-12T15:43:48.850Z,38.69
2019-05-12T15:46:17.944Z,38.34
2019-05-12T15:48:47.058Z,37.52
2019-05-12T15:51:19.643Z,38.69
2019-05-12T15:53:48.674Z,40.16
2019-05-12T15:56:23.013Z,40.37
2019-05-12T15:58:48.561Z,40.62
2019-05-12T16:01:17.637Z,40.42
2019-05-12T16:03:47.757Z,41.43
2019-05-12T16:06:16.834Z,40.45
2019-05-12T16:08:46.037Z,40.83
2019-05-12T16:11:15.110Z,39.62
2019-05-12T16:13:53.447Z,39.03
2019-05-12T16:16:16.876Z,39.53
2019-05-12T16:18:50.414Z,39.31
2019-05-12T16:21:18.907Z,39.35
2019-05-12T16:23:47.995Z,39.23
2019-05-12T16:26:17.059Z,38.28
2019-05-12T16:28:46.122Z,39.28
2019-05-12T16:31:15.170Z,39.36
2019-05-12T16:33:44.285Z,39.78
2019-05-12T16:36:14.540Z,40.41
2019-05-12T16:38:50.227Z,39.72
2019-05-12T16:41:19.921Z,40.09
2019-05-12T16:43:49.209Z,39.61
2019-05-12T16:46:23.507Z,39.60
2019-05-12T16:48:57.188Z,39.28
2019-05-12T16:51:26.352Z,40.22
2019-05-12T16:53:58.159Z,40.75
2019-05-12T16:56:30.103Z,40.57
2019-05-12T16:59:08.917Z,40.41
2019-05-12T17:01:37.356Z,40.15
2019-05-12T17:04:06.683Z,40.74
2019-05-12T17:06:38.570Z,40.70
2019-05-12T17:09:10.428Z,41.34
2019-05-12T17:11:47.327Z,41.09
2019-05-12T17:14:15.444Z,40.65
2019-05-12T17:16:46.648Z,39.78
2019-05-12T17:19:16.337Z,39.41
2019-05-12T17:21:49.442Z,39.88
2019-05-12T17:24:20.835Z,39.95
2019-05-12T17:26:49.883Z,39.79
2019-05-12T17:29:24.228Z,39.75
2019-05-12T17:31:53.665Z,39.20
2019-05-12T17:34:34.030Z,39.60
2019-05-12T17:37:04.088Z,39.45
2019-05-12T17:39:35.578Z,39.89
2019-05-12T17:42:05.443Z,39.33
2019-05-12T17:44:39.024Z,39.83
2019-05-12T17:47:12.930Z,40.28
2019-05-12T17:49:43.595Z,41.18
2019-05-12T17:52:18.392Z,40.00
2019-05-12T17:54:47.191Z,40.11
2019-05-12T17:57:19.898Z,40.59
2019-05-12T17:59:47.367Z,40.46
2019-05-12T18:02:17.046Z,40.25
2019-05-12T18:04:53.473Z,40.08
2019-05-12T18:07:23.968Z,40.50
2019-05-12T18:09:56.697Z,40.27
2019-05-12T18:12:44.444Z,41.26
2019-05-12T18:15:15.111Z,40.32
2019-05-12T18:17:50.153Z,40.48
2019-05-12T18:20:23.802Z,40.53
2019-05-12T18:22:58.657Z,40.38
2019-05-12T18:25:32.463Z,40.38
2019-05-12T18:28:03.595Z,41.02
2019-05-12T18:30:33.616Z,41.49
2019-05-12T18:33:09.494Z,41.05
2019-05-12T18:35:40.714Z,40.94
2019-05-12T18:38:22.994Z,41.25
2019-05-12T18:40:45.304Z,41.23
2019-05-12T18:43:14.374Z,41.46
2019-05-12T18:45:48.784Z,41.70
2019-05-12T18:48:22.024Z,41.75
2019-05-12T18:50:47.965Z,41.68
2019-05-12T18:53:27.557Z,41.98
2019-05-12T18:55:48.807Z,42.02
2019-05-12T18:58:21.910Z,42.31
2019-05-12T19:00:48.747Z,41.91
2019-05-12T19:03:20.633Z,41.79
2019-05-12T19:05:48.939Z,41.97
2019-05-12T19:08:23.657Z,42.15
2019-05-12T19:10:55.386Z,42.38
2019-05-12T19:13:24.570Z,42.46
2019-05-12T19:16:02.397Z,42.84
2019-05-12T19:18:32.383Z,42.94
2019-05-12T19:20:55.706Z,43.01
2019-05-12T19:23:35.063Z,43.09
2019-05-12T19:26:04.278Z,43.02
2019-05-12T19:28:34.238Z,42.92
2019-05-12T19:31:10.243Z,43.09
2019-05-12T19:33:44.016Z,42.92
2019-05-12T19:36:13.727Z,43.32
2019-05-12T19:38:43.864Z,42.70
2019-05-12T19:41:14.115Z,42.63
2019-05-12T19:43:47.688Z,42.68
2019-05-12T19:46:15.007Z,42.86
2019-05-12T19:48:50.157Z,43.33
2019-05-12T19:51:27.759Z,42.72
2019-05-12T19:53:53.251Z,43.03
2019-05-12T19:56:23.836Z,44.09
2019-05-12T19:58:54.003Z,44.02
2019-05-12T20:01:31.892Z,43.31
2019-05-12T20:03:58.016Z,43.56
2019-05-12T20:06:26.877Z,43.96
2019-05-12T20:09:05.954Z,43.73
2019-05-12T20:11:31.416Z,43.67
2019-05-12T20:13:58.831Z,44.27
2019-05-12T20:16:30.709Z,44.21
2019-05-12T20:18:59.846Z,44.39
2019-05-12T20:21:28.889Z,45.09
2019-05-12T20:23:57.952Z,45.09
2019-05-12T20:26:27.015Z,45.26
2019-05-12T20:28:56.727Z,45.13
2019-05-12T20:31:27.981Z,45.61
2019-05-12T20:34:04.584Z,46.08
2019-05-12T20:36:27.960Z,46.28
2019-05-12T20:38:57.312Z,46.52
2019-05-12T20:41:26.973Z,46.71
2019-05-12T20:43:59.370Z,46.98
2019-05-12T20:46:28.451Z,47.55
2019-05-12T20:49:01.204Z,48.06
2019-05-12T20:51:33.927Z,48.20
2019-05-12T20:54:07.471Z,48.17
2019-05-12T20:56:36.462Z,48.16
2019-05-12T20:59:07.850Z,48.29
2019-05-12T21:01:36.907Z,48.27
2019-05-12T21:04:07.830Z,48.25
2019-05-12T21:06:41.741Z,48.47
2019-05-12T21:09:07.654Z,48.59
2019-05-12T21:11:40.626Z,48.62
2019-05-12T21:14:12.321Z,48.79
2019-05-12T21:16:46.389Z,48.89
2019-05-12T21:19:16.799Z,48.83
2019-05-12T21:21:48.972Z,48.90
2019-05-12T21:24:24.433Z,48.71
2019-05-12T21:26:57.836Z,48.88
2019-05-12T21:29:29.871Z,48.74
2019-05-12T21:32:03.063Z,48.69
2019-05-12T21:34:36.629Z,48.72
2019-05-12T21:37:06.729Z,48.90
2019-05-12T21:39:46.807Z,49.04
2019-05-12T21:42:14.831Z,48.96
2019-05-12T21:44:46.998Z,48.50
2019-05-12T21:47:15.261Z,48.73
2019-05-12T21:49:48.558Z,48.47
2019-05-12T21:52:19.378Z,48.54
2019-05-12T21:54:50.189Z,48.79
2019-05-12T21:57:24.802Z,48.81
2019-05-12T21:59:53.182Z,49.05
2019-05-12T22:02:28.993Z,48.93
2019-05-12T22:04:57.514Z,49.17
2019-05-12T22:07:29.522Z,48.90
2019-05-12T22:09:57.914Z,49.03
2019-05-12T22:12:30.238Z,49.38
2019-05-12T22:15:00.652Z,49.40
2019-05-12T22:17:33.322Z,49.72
2019-05-12T22:20:15.529Z,49.90
2019-05-12T22:22:45.509Z,50.43
2019-05-12T22:25:17.595Z,50.66
2019-05-12T22:27:46.998Z,50.38
2019-05-12T22:30:19.150Z,50.40
2019-05-12T22:32:48.223Z,50.78
2019-05-12T22:35:22.433Z,50.97
2019-05-12T22:37:53.404Z,51.31
2019-05-12T22:40:24.319Z,51.22
2019-05-12T22:42:56.943Z,51.25
2019-05-12T22:45:28.053Z,51.06
2019-05-12T22:47:59.094Z,51.21
2019-05-12T22:50:33.004Z,51.14
2019-05-12T22:53:04.961Z,51.28
2019-05-12T22:55:36.379Z,51.50
2019-05-12T22:58:10.703Z,51.77
2019-05-12T23:00:37.036Z,51.67
2019-05-12T23:03:11.818Z,51.84
2019-05-12T23:05:38.978Z,51.89
2019-05-12T23:08:08.663Z,51.58
2019-05-12T23:10:41.454Z,51.20
2019-05-12T23:13:13.593Z,51.45
2019-05-12T23:15:49.413Z,51.56
2019-05-12T23:18:28.851Z,51.46
2019-05-12T23:20:55.078Z,51.82
2019-05-12T23:23:25.397Z,51.90
2019-05-12T23:26:00.581Z,52.06
2019-05-12T23:28:25.264Z,52.39
2019-05-12T23:30:57.061Z,52.58
2019-05-12T23:33:36.311Z,52.25
2019-05-12T23:36:15.762Z,52.44
2019-05-12T23:38:45.881Z,52.92
2019-05-12T23:41:14.966Z,52.89
2019-05-12T23:43:45.701Z,52.81
2019-05-12T23:46:14.799Z,52.74
2019-05-12T23:48:54.205Z,52.96
2019-05-12T23:51:25.459Z,53.04
2019-05-12T23:53:56.535Z,53.20
2019-05-12T23:56:26.691Z,53.56
2019-05-12T23:58:55.727Z,53.41
